• Join FlightAware (Why Join?)
  • Login
  • US Flag 
03:12PM EDT


 

Airport Tracker/Info


-or-


 

Live Flight TrackerFlight Track Log ✈ N802SL ✈ 06-May-2013 ✈ KOQN - KBHB

Flight Track Log - Related Links

Times and Time Zones

All times are in EDT time to prevent confusion due to time zone crossing. See the N802SL flight status page for this flight to view local times or setup timezone preferences in your user account.

Time Position Orientation Groundspeed Altitude Reporting Facility
EDT Latitude Longitude Course Direction KTS MPH feet Rate Location/Type
06:46AM 39.9833 -75.5667 101° East 96 110 1,200  Level Philadelphia TRACON
06:47AM 39.9667 -75.5667 180° South 158 182 2,300 1,800 Climbing Philadelphia TRACON
06:48AM 39.9500 -75.6167 247° West 171 197 3,900 1,800 Climbing Philadelphia TRACON
06:49AM 39.9333 -75.6333 217° Southwest 132 152 6,000 1,740 Climbing Philadelphia TRACON
06:50AM 39.9000 -75.6000 143° Southeast 160 184 7,600 1,260 Climbing Philadelphia TRACON
06:51AM 39.8667 -75.5333 123° Southeast 192 221 9,000 660 Climbing Philadelphia TRACON
06:52AM 39.8871 -75.1263 101° East  Level FlightAware Approximate
06:52AM 39.8667 -75.4667 90° East 201 231 9,000  Level Philadelphia TRACON
06:53AM 39.8500 -75.4000 108° East 196 226 9,000  Level Philadelphia TRACON
06:54AM 39.8500 -75.3333 90° East 195 224 9,000  Level Philadelphia TRACON
06:55AM 39.8500 -75.2667 90° East 199 229 9,000  Level Philadelphia TRACON
06:56AM 39.8333 -75.1833 105° East 198 228 9,000  Level Philadelphia TRACON
06:58AM 39.8219 -75.0306 95° East 200 230 9,000  Level New York Center
06:59AM 39.8144 -74.9517 97° East 200 230 9,000  Level New York Center
07:00AM 39.8083 -74.8839 97° East 200 230 9,000  Level New York Center
07:01AM 39.8028 -74.8050 95° East 200 230 9,000 720 Level New York Center
07:02AM 39.7967 -74.7400 97° East 195 224 10,500 1,620 Climbing New York Center
07:03AM 39.7969 -74.6697 90° East 195 224 12,200 1,620 Climbing New York Center
07:04AM 39.8033 -74.6050 83° East 183 211 13,800 1,560 Climbing New York Center
07:05AM 39.8117 -74.5408 80° East 177 204 15,400 1,560 Climbing New York Center
07:06AM 39.8156 -74.4761 86° East 177 204 16,900 1,380 Climbing New York Center
07:07AM 39.8300 -74.4147 73° East 177 204 18,200 1,200 Climbing New York Center
07:10AM 39.8969 -74.3006 53° Northeast 182 209 20,700 1,080 Climbing Boston Center
07:11AM 39.9269 -74.2392 57° Northeast 192 221 21,700 960 Climbing Boston Center
07:12AM 39.9592 -74.1833 53° Northeast 192 221 22,700 600 Climbing Boston Center
07:13AM 39.9914 -74.1192 57° Northeast 192 221 23,000 600 Climbing Boston Center
07:14AM 40.0236 -74.0550 57° Northeast 199 229 23,900 900 Climbing Boston Center
07:15AM 40.0558 -73.9933 56° Northeast 199 229 24,900 480 Climbing Boston Center
07:16AM 40.0900 -73.9317 54° Northeast 199 229 24,900  Level Boston Center
07:17AM 40.1344 -73.8731 45° Northeast 211 243 24,900  Level Boston Center
07:18AM 40.1811 -73.8117 45° Northeast 226 260 25,000  Climbing Boston Center
07:19AM 40.2294 -73.7583 40° Northeast 226 260 25,000  Level Boston Center
07:20AM 40.2739 -73.6967 47° Northeast 226 260 25,000  Level Boston Center
07:21AM 40.3164 -73.6294 50° Northeast 226 260 25,000  Level Boston Center
07:22AM 40.3608 -73.5703 45° Northeast 226 260 25,000  Level Boston Center
07:23AM 40.4072 -73.5111 44° Northeast 226 260 25,000  Level Boston Center
07:24AM 40.4517 -73.4492 47° Northeast 226 260 25,000  Level Boston Center
07:25AM 40.5000 -73.3897 43° Northeast 226 260 25,000  Level Boston Center
07:26AM 40.5483 -73.3331 42° Northeast 226 260 25,000  Level Boston Center
07:27AM 40.5989 -73.2764 40° Northeast 226 260 25,000  Level Boston Center
07:28AM 40.6450 -73.2169 44° Northeast 231 266 25,000  Level Boston Center
07:29AM 40.6975 -73.1628 38° Northeast 231 266 25,000  Level Boston Center
07:30AM 40.7458 -73.1086 40° Northeast 231 266 25,000  Level Boston Center
07:31AM 40.7961 -73.0486 42° Northeast 231 266 25,000  Level Boston Center
07:32AM 40.8422 -72.9942 42° Northeast 236 272 25,000  Level Boston Center
07:33AM 40.8925 -72.9317 43° Northeast 236 272 25,000  Level Boston Center
07:34AM 40.9428 -72.8769 39° Northeast 236 272 25,000  Level Boston Center
07:35AM 40.9908 -72.8169 43° Northeast 236 272 25,000  Level Boston Center
07:36AM 41.0392 -72.7592 42° Northeast 236 272 25,000  Level Boston Center
07:37AM 41.0892 -72.7017 41° Northeast 236 272 25,000  Level Boston Center
07:38AM 41.1372 -72.6442 42° Northeast 236 272 25,000  Level Boston Center
07:39AM 41.1875 -72.5836 42° Northeast 236 272 25,000  Level Boston Center
07:40AM 41.2353 -72.5228 44° Northeast 236 272 25,000  Level Boston Center
07:41AM 41.2814 -72.4650 43° Northeast 236 272 25,000  Level Boston Center
07:42AM 41.3208 -72.4181 42° Northeast 236 272 25,000  Level Boston Center
07:43AM 41.3811 -72.3433 43° Northeast 236 272 25,000  Level Boston Center
07:44AM 41.4292 -72.2850 42° Northeast 236 272 25,000  Level Boston Center
07:45AM 41.4833 -72.2239 40° Northeast 236 272 25,000  Level Boston Center
07:46AM 41.5331 -72.1656 41° Northeast 236 272 25,000  Level Boston Center
07:47AM 41.5831 -72.1014 44° Northeast 236 272 25,000  Level Boston Center
07:48AM 41.6328 -72.0400 43° Northeast 236 272 25,000  Level Boston Center
07:49AM 41.6847 -71.9786 41° Northeast 236 272 25,000  Level Boston Center
07:51AM 41.7842 -71.8556 43° Northeast 236 272 25,000  Level Boston Center
07:52AM 41.8358 -71.7936 42° Northeast 236 272 25,000  Level Boston Center
07:53AM 41.8856 -71.7289 44° Northeast 236 272 25,000  Level Boston Center
07:55AM 41.9867 -71.6050 42° Northeast 236 272 25,000  Level Boston Center
07:56AM 42.0425 -71.5456 38° Northeast 236 272 25,000  Level Boston Center
07:57AM 42.0919 -71.4806 44° Northeast 236 272 25,000  Level Boston Center
07:58AM 42.1436 -71.4153 43° Northeast 236 272 25,000  Level Boston Center
07:59AM 42.1950 -71.3528 42° Northeast 236 272 25,000  Level Boston Center
08:00AM 42.2444 -71.2903 43° Northeast 236 272 25,000  Level Boston Center
08:01AM 42.2981 -71.2247 42° Northeast 236 272 25,000  Level Boston Center
08:02AM 42.3472 -71.1619 43° Northeast 241 277 25,000  Level Boston Center
08:03AM 42.3986 -71.0961 43° Northeast 241 277 25,000  Level Boston Center
08:04AM 42.4500 -71.0303 43° Northeast 241 277 25,000  Level Boston Center
08:05AM 42.5033 -70.9644 42° Northeast 241 277 25,000  Level Boston Center
08:06AM 42.5547 -70.8983 43° Northeast 241 277 25,000  Level Boston Center
08:07AM 42.6036 -70.8322 45° Northeast 241 277 25,000  Level Boston Center
08:08AM 42.6550 -70.7689 42° Northeast 241 277 25,000  Level Boston Center
08:09AM 42.7061 -70.7025 44° Northeast 241 277 25,000  Level Boston Center
08:10AM 42.7550 -70.6361 45° Northeast 241 277 25,000  Level Boston Center
08:11AM 42.8061 -70.5694 44° Northeast 241 277 25,000  Level Boston Center
08:13AM 42.9081 -70.4389 43° Northeast 241 277 25,000  Level Boston Center
08:14AM 42.9489 -70.3864 43° Northeast 241 277 25,000 -180 Level Boston Center
08:15AM 43.0036 -70.3108 45° Northeast 241 277 24,700 -360 Descending Boston Center
08:16AM 43.0586 -70.2464 41° Northeast 241 277 24,300 -420 Descending Boston Center
08:17AM 43.1094 -70.1706 47° Northeast 246 283 23,900 -480 Descending Boston Center
08:18AM 43.1642 -70.1003 43° Northeast 256 295 23,400 -480 Descending Boston Center
08:19AM 43.2147 -70.0297 45° Northeast 256 295 23,000 -480 Descending Boston Center
08:20AM 43.2675 -69.9622 43° Northeast 256 295 22,500 -480 Descending Boston Center
08:21AM 43.3264 -69.8883 42° Northeast 256 295 22,100 -480 Descending Boston Center
08:23AM 43.4317 -69.7494 44° Northeast 261 300 21,200 -480 Descending Boston Center
08:25AM 43.5325 -69.6133 44° Northeast 261 300 20,300 -480 Descending Boston Center
08:26AM 43.5831 -69.5450 44° Northeast 256 295 19,900 -480 Descending Boston Center
08:27AM 43.6333 -69.4767 45° Northeast 256 295 19,400 -480 Descending Boston Center
08:28AM 43.6836 -69.4111 43° Northeast 251 289 19,000 -420 Descending Boston Center
08:29AM 43.7281 -69.3514 44° Northeast 245 282 18,600 -420 Descending Boston Center
08:31AM 43.8325 -69.2106 44° Northeast 240 276 17,800 -480 Descending Boston Center
08:32AM 43.8786 -69.1506 43° Northeast 240 276 17,300 -660 Descending Boston Center
08:33AM 43.9247 -69.0844 46° Northeast 235 270 16,500 -1,140 Descending Boston Center
08:34AM 43.9728 -69.0211 43° Northeast 235 270 15,100 -1,500 Descending Boston Center
08:35AM 44.0189 -68.9581 45° Northeast 235 270 13,600 -1,380 Descending Boston Center
08:37AM 44.1072 -68.8428 43° Northeast 235 270 11,000 -1,320 Descending Boston Center
08:39AM 44.1778 -68.7083 47° Northeast  Level FlightAware Approximate
08:46AM 44.4333 -68.3500 50° Northeast  Level FlightAware Approximate
08:47AM 44.4498 -68.3616 50° Northeast  Level Estimated
08:48AM 44.4498 -68.3616 50° Northeast  Level Estimated
08:49AM 44.4498 -68.3616 50° Northeast  Level Estimated
08:50AM 44.4498 -68.3616 50° Northeast  Level Estimated
08:51AM 44.4498 -68.3616 50° Northeast  Level Estimated
08:52AM 44.4498 -68.3616 50° Northeast  Level Estimated
08:53AM 44.4498 -68.3616 50° Northeast  Level Estimated
08:54AM 44.4498 -68.3616 50° Northeast  Level Estimated